createdAt,value
2022-12-04T00:00:51.828Z,11.77
2022-12-04T00:03:55.657Z,13.27
2022-12-04T00:07:03.328Z,11.93
2022-12-04T00:10:05.389Z,11.20
2022-12-04T00:13:07.717Z,11.47
2022-12-04T00:16:16.308Z,11.70
2022-12-04T00:19:28.331Z,11.83
2022-12-04T00:22:36.456Z,12.47
2022-12-04T00:25:48.998Z,11.17
2022-12-04T00:28:51.618Z,12.10
2022-12-04T00:31:53.436Z,11.80
2022-12-04T00:34:55.187Z,10.50
2022-12-04T00:38:05.378Z,12.13
2022-12-04T00:41:12.641Z,11.87
2022-12-04T00:44:20.183Z,10.77
2022-12-04T00:47:22.055Z,10.50
2022-12-04T00:50:34.443Z,10.13
2022-12-04T00:53:36.713Z,11.37
2022-12-04T00:56:39.410Z,11.67
2022-12-04T00:59:41.961Z,12.87
2022-12-04T01:02:43.744Z,9.90
2022-12-04T01:05:45.907Z,11.80
2022-12-04T01:08:48.503Z,11.80
2022-12-04T01:11:50.947Z,11.83
2022-12-04T01:14:52.649Z,11.67
2022-12-04T01:17:55.136Z,11.77
2022-12-04T01:20:57.039Z,11.63
2022-12-04T01:23:59.583Z,11.77
2022-12-04T01:27:01.356Z,11.27
2022-12-04T01:30:03.950Z,11.40
2022-12-04T01:33:05.717Z,10.20
2022-12-04T01:36:11.578Z,11.47
2022-12-04T01:39:13.443Z,10.90
2022-12-04T01:42:18.171Z,10.70
2022-12-04T01:45:37.589Z,11.00
2022-12-04T01:48:50.377Z,11.13
2022-12-04T01:55:17.498Z,9.07
2022-12-04T01:58:31.766Z,10.93
2022-12-04T02:01:34.062Z,10.50
2022-12-04T02:04:36.940Z,10.13
2022-12-04T02:07:40.118Z,10.73
2022-12-04T02:11:19.293Z,10.77
2022-12-04T02:14:20.949Z,11.80
2022-12-04T02:17:39.211Z,11.83
2022-12-04T02:20:52.702Z,12.40
2022-12-04T02:23:57.725Z,10.97
2022-12-04T02:27:07.680Z,9.90
2022-12-04T02:30:13.054Z,10.10
2022-12-04T02:33:20.004Z,10.63
2022-12-04T02:36:29.689Z,9.90
2022-12-04T02:39:40.375Z,10.43
2022-12-04T02:42:53.456Z,11.13
2022-12-04T02:46:08.866Z,10.80
2022-12-04T02:49:19.305Z,11.47
2022-12-04T02:52:26.035Z,10.77
2022-12-04T02:55:52.436Z,10.90
2022-12-04T02:59:02.878Z,10.70
2022-12-04T03:02:21.934Z,9.90
2022-12-04T03:05:47.722Z,10.90
2022-12-04T03:08:54.953Z,11.10
2022-12-04T03:12:21.889Z,12.13
2022-12-04T03:15:31.275Z,11.23
2022-12-04T03:18:55.738Z,11.10
2022-12-04T03:22:02.649Z,10.40
2022-12-04T03:25:05.839Z,9.73
2022-12-04T03:28:25.754Z,10.33
2022-12-04T03:31:45.679Z,9.50
2022-12-04T03:35:17.429Z,10.63
2022-12-04T03:38:33.550Z,11.17
2022-12-04T03:41:51.471Z,11.87
2022-12-04T03:45:05.681Z,10.87
2022-12-04T03:48:16.833Z,10.60
2022-12-04T03:51:34.107Z,10.63
2022-12-04T03:54:43.463Z,10.77
2022-12-04T03:57:47.049Z,9.17
2022-12-04T04:00:53.034Z,10.07
2022-12-04T04:03:58.415Z,10.30
2022-12-04T04:07:10.499Z,10.50
2022-12-04T04:10:16.770Z,10.50
2022-12-04T04:13:41.295Z,11.80
2022-12-04T04:17:07.781Z,11.40
2022-12-04T04:20:33.634Z,11.13
2022-12-04T04:23:59.782Z,10.20
2022-12-04T04:27:02.630Z,9.90
2022-12-04T04:30:06.439Z,11.17
2022-12-04T04:33:13.743Z,11.17
2022-12-04T04:36:37.940Z,11.43
2022-12-04T04:40:03.103Z,11.17
2022-12-04T04:43:09.815Z,11.33
2022-12-04T04:46:29.642Z,10.17
2022-12-04T04:49:33.901Z,11.33
2022-12-04T04:52:39.439Z,9.20
2022-12-04T04:55:42.040Z,10.60
2022-12-04T04:58:44.180Z,11.80
2022-12-04T05:01:46.883Z,10.97
2022-12-04T05:04:48.622Z,9.10
2022-12-04T05:07:50.224Z,9.70
2022-12-04T05:10:52.122Z,10.43
2022-12-04T05:13:53.814Z,10.00
2022-12-04T05:16:58.858Z,10.47
2022-12-04T05:20:05.278Z,9.07
2022-12-04T05:23:07.311Z,10.93
2022-12-04T05:26:09.175Z,10.70
2022-12-04T05:29:10.903Z,10.90
2022-12-04T05:32:12.580Z,11.20
2022-12-04T05:35:14.236Z,11.60
2022-12-04T05:38:15.957Z,10.13
2022-12-04T05:41:17.590Z,10.60
2022-12-04T05:44:19.387Z,10.70
2022-12-04T05:47:20.982Z,11.23
2022-12-04T05:50:22.578Z,11.07
2022-12-04T05:53:24.248Z,10.43
2022-12-04T05:56:25.984Z,9.97
2022-12-04T05:59:27.657Z,9.73
2022-12-04T06:02:29.343Z,9.20
2022-12-04T06:05:32.540Z,10.30
2022-12-04T06:08:34.137Z,8.37
2022-12-04T06:11:37.687Z,9.80
2022-12-04T06:14:39.950Z,8.83
2022-12-04T06:17:41.745Z,9.50
2022-12-04T06:20:43.358Z,9.40
2022-12-04T06:23:45.634Z,9.93
2022-12-04T06:27:18.589Z,10.33
2022-12-04T06:30:09.675Z,9.30
2022-12-04T06:33:11.257Z,10.10
2022-12-04T06:36:16.382Z,10.53
2022-12-04T06:39:19.145Z,8.67
2022-12-04T06:42:20.957Z,10.20
2022-12-04T06:45:22.567Z,10.33
2022-12-04T06:48:24.231Z,9.40
2022-12-04T06:51:32.442Z,10.73
2022-12-04T06:54:34.068Z,11.40
2022-12-04T06:57:35.674Z,11.23
2022-12-04T07:00:37.310Z,12.00
2022-12-04T07:03:39.325Z,12.83
2022-12-04T07:06:42.122Z,11.90
2022-12-04T07:09:44.202Z,12.43
2022-12-04T07:12:45.845Z,12.37
2022-12-04T07:15:47.777Z,12.47
2022-12-04T07:18:58.988Z,13.17
2022-12-04T07:22:00.637Z,10.93
2022-12-04T07:25:02.519Z,13.13
2022-12-04T07:28:04.196Z,12.23
2022-12-04T07:31:07.351Z,12.43
2022-12-04T07:34:08.954Z,12.77
2022-12-04T07:37:10.534Z,12.27
2022-12-04T07:40:12.935Z,14.13
2022-12-04T07:43:14.601Z,12.97
2022-12-04T07:46:22.206Z,12.90
2022-12-04T07:49:23.908Z,11.97
2022-12-04T07:52:25.505Z,12.63
2022-12-04T07:55:27.160Z,12.17
2022-12-04T07:58:28.852Z,11.97
2022-12-04T08:01:31.529Z,11.90
2022-12-04T08:04:33.369Z,13.77
2022-12-04T08:07:35.010Z,12.60
2022-12-04T08:10:39.157Z,13.27
2022-12-04T08:13:40.845Z,12.40
2022-12-04T08:16:47.110Z,12.30
2022-12-04T08:19:53.151Z,12.20
2022-12-04T08:22:54.999Z,12.03
2022-12-04T08:25:59.703Z,12.47
2022-12-04T08:29:02.119Z,12.57
2022-12-04T08:32:04.142Z,11.63
2022-12-04T08:35:06.082Z,11.80
2022-12-04T08:38:08.090Z,12.23
2022-12-04T08:41:16.118Z,11.40
2022-12-04T08:44:17.786Z,13.10
2022-12-04T08:47:19.425Z,13.43
2022-12-04T08:50:21.077Z,12.80
2022-12-04T08:53:23.679Z,12.73
2022-12-04T08:56:26.524Z,12.50
2022-12-04T08:59:30.554Z,12.53
2022-12-04T09:02:32.138Z,14.20
2022-12-04T09:05:33.746Z,13.00
2022-12-04T09:08:35.613Z,11.50
2022-12-04T09:11:37.312Z,12.63
2022-12-04T09:14:39.198Z,13.00
2022-12-04T09:17:40.957Z,13.47
2022-12-04T09:20:42.542Z,12.20
2022-12-04T09:23:44.711Z,12.43
2022-12-04T09:26:46.311Z,13.40
2022-12-04T09:29:47.937Z,11.67
2022-12-04T09:32:49.553Z,13.87
2022-12-04T09:35:51.202Z,13.60
2022-12-04T09:38:54.361Z,11.80
2022-12-04T09:42:29.339Z,12.57
2022-12-04T09:45:44.865Z,13.30
2022-12-04T09:48:48.601Z,11.37
2022-12-04T09:51:53.075Z,12.30
2022-12-04T09:54:55.671Z,12.97
2022-12-04T09:58:02.427Z,13.17
2022-12-04T10:01:05.512Z,11.60
2022-12-04T10:04:10.690Z,13.00
2022-12-04T10:07:18.310Z,12.10
2022-12-04T10:10:42.376Z,13.10
2022-12-04T10:13:57.996Z,13.30
2022-12-04T10:17:05.433Z,11.83
2022-12-04T10:20:44.689Z,12.70
2022-12-04T10:24:00.385Z,12.70
2022-12-04T10:27:09.493Z,12.50
2022-12-04T10:30:21.476Z,13.30
2022-12-04T10:33:28.352Z,13.97
2022-12-04T10:36:33.589Z,12.00
2022-12-04T10:40:00.691Z,12.10
2022-12-04T10:43:29.093Z,12.40
2022-12-04T10:46:34.585Z,12.20
2022-12-04T10:49:37.491Z,12.73
2022-12-04T10:52:39.086Z,12.37
2022-12-04T10:55:41.178Z,13.70
2022-12-04T10:58:42.824Z,14.23
2022-12-04T11:01:45.317Z,13.30
2022-12-04T11:04:56.318Z,13.60
2022-12-04T11:07:59.762Z,12.10
2022-12-04T11:11:26.068Z,12.83
2022-12-04T11:14:27.735Z,14.97
2022-12-04T11:17:29.437Z,13.27
2022-12-04T11:20:31.326Z,14.53
2022-12-04T11:23:41.731Z,15.83
2022-12-04T11:26:43.574Z,13.40
2022-12-04T11:29:47.150Z,13.17
2022-12-04T11:32:48.916Z,15.10
2022-12-04T11:36:02.996Z,13.27
2022-12-04T11:39:12.926Z,14.60
2022-12-04T11:42:29.319Z,15.07
2022-12-04T11:45:32.069Z,12.93
2022-12-04T11:48:44.262Z,15.90
2022-12-04T11:51:45.918Z,13.50
2022-12-04T11:55:12.455Z,14.60
2022-12-04T11:58:32.866Z,15.53
2022-12-04T12:01:58.248Z,13.00
2022-12-04T12:05:32.926Z,14.23
2022-12-04T12:08:37.645Z,14.70
2022-12-04T12:11:52.935Z,13.43
2022-12-04T12:15:14.454Z,15.77
2022-12-04T12:18:39.180Z,13.60
2022-12-04T12:22:06.978Z,14.93
2022-12-04T12:25:29.421Z,14.30
2022-12-04T12:28:55.921Z,16.40
2022-12-04T12:32:10.931Z,14.70
2022-12-04T12:35:41.454Z,13.90
2022-12-04T12:39:07.348Z,14.90
2022-12-04T12:42:24.929Z,14.70
2022-12-04T12:45:45.465Z,13.73
2022-12-04T12:49:16.448Z,13.70
2022-12-04T12:52:38.452Z,12.90
2022-12-04T12:55:45.674Z,15.20
2022-12-04T12:58:55.815Z,14.60
2022-12-04T13:02:07.789Z,15.27
2022-12-04T13:05:13.249Z,13.40
2022-12-04T13:08:52.719Z,14.50
2022-12-04T13:12:01.513Z,15.53
2022-12-04T13:15:03.508Z,14.27
2022-12-04T13:18:09.206Z,15.13
2022-12-04T13:21:28.117Z,14.80
2022-12-04T13:24:51.535Z,14.83
2022-12-04T13:28:15.656Z,13.90
2022-12-04T13:32:11.471Z,16.33
2022-12-04T13:35:26.334Z,13.73
2022-12-04T13:38:43.285Z,14.10
2022-12-04T13:41:45.021Z,13.43
2022-12-04T13:45:00.406Z,13.67
2022-12-04T13:48:03.593Z,14.03
2022-12-04T13:51:07.998Z,14.30
2022-12-04T13:54:12.447Z,14.33
2022-12-04T13:57:19.908Z,13.67
2022-12-04T14:00:43.152Z,13.70
2022-12-04T14:03:49.270Z,13.80
2022-12-04T14:06:51.890Z,15.17
2022-12-04T14:09:56.041Z,13.03
2022-12-04T14:13:01.726Z,13.40
2022-12-04T14:16:08.281Z,11.97
2022-12-04T14:19:27.660Z,13.13
2022-12-04T14:22:29.309Z,12.60
2022-12-04T14:25:37.926Z,13.77
2022-12-04T14:28:42.676Z,14.10
2022-12-04T14:31:44.457Z,13.47
2022-12-04T14:34:47.940Z,12.77
2022-12-04T14:37:58.709Z,12.00
2022-12-04T14:41:01.670Z,13.20
2022-12-04T14:44:03.664Z,12.70
2022-12-04T14:47:23.345Z,12.60
2022-12-04T14:50:47.402Z,13.97
2022-12-04T14:54:26.722Z,14.63
2022-12-04T14:57:41.067Z,12.80
2022-12-04T15:00:50.216Z,13.87
2022-12-04T15:03:56.019Z,13.37
2022-12-04T15:07:00.544Z,13.40
2022-12-04T15:10:56.807Z,13.40
2022-12-04T15:14:16.236Z,13.70
2022-12-04T15:17:18.683Z,14.90
2022-12-04T15:20:21.395Z,15.40
2022-12-04T15:23:29.013Z,13.80
2022-12-04T15:26:33.401Z,13.57
2022-12-04T15:29:38.297Z,14.10
2022-12-04T15:32:39.959Z,14.77
2022-12-04T15:35:47.031Z,13.83
2022-12-04T15:38:51.003Z,12.10
2022-12-04T15:42:03.978Z,13.90
2022-12-04T15:45:25.150Z,16.83
2022-12-04T15:48:31.308Z,13.57
2022-12-04T15:51:33.158Z,13.73
2022-12-04T15:54:36.382Z,15.43
2022-12-04T15:57:42.210Z,15.87
2022-12-04T16:00:44.533Z,14.63
2022-12-04T16:03:55.568Z,14.30
2022-12-04T16:06:57.204Z,15.07
2022-12-04T16:10:04.090Z,14.80
2022-12-04T16:13:06.222Z,15.50
2022-12-04T16:16:12.143Z,14.53
2022-12-04T16:19:33.472Z,15.90
2022-12-04T16:22:35.098Z,14.70
2022-12-04T16:25:37.049Z,15.57
2022-12-04T16:28:38.700Z,14.23
2022-12-04T16:31:40.522Z,15.40
2022-12-04T16:34:42.302Z,15.10
2022-12-04T16:37:43.924Z,14.30
2022-12-04T16:40:45.978Z,14.70
2022-12-04T16:43:55.105Z,14.63
2022-12-04T16:46:56.811Z,15.13
2022-12-04T16:49:58.526Z,13.70
2022-12-04T16:53:00.251Z,16.03
2022-12-04T16:56:01.899Z,14.37
2022-12-04T16:59:07.683Z,15.07
2022-12-04T17:02:27.359Z,15.43
2022-12-04T17:05:31.920Z,15.87
2022-12-04T17:08:33.554Z,16.33
2022-12-04T17:11:35.183Z,16.43
2022-12-04T17:14:36.770Z,16.87
2022-12-04T17:17:39.025Z,15.43
2022-12-04T17:20:42.219Z,16.30
2022-12-04T17:23:43.991Z,14.80
2022-12-04T17:26:48.657Z,16.00
2022-12-04T17:29:50.349Z,15.00
2022-12-04T17:32:51.980Z,15.93
2022-12-04T17:35:54.455Z,14.53
2022-12-04T17:38:58.572Z,15.30
2022-12-04T17:42:00.378Z,16.03
2022-12-04T17:45:02.157Z,15.70
2022-12-04T17:48:03.847Z,16.13
2022-12-04T17:51:14.823Z,15.60
2022-12-04T17:54:16.439Z,17.90
2022-12-04T17:57:19.207Z,17.00
2022-12-04T18:00:20.850Z,16.03
2022-12-04T18:03:22.568Z,16.47
2022-12-04T18:06:26.802Z,16.80
2022-12-04T18:09:28.574Z,15.00
2022-12-04T18:12:30.213Z,16.50
2022-12-04T18:15:34.282Z,17.03
2022-12-04T18:18:36.582Z,16.67
2022-12-04T18:21:38.526Z,18.13
2022-12-04T18:24:40.253Z,17.73
2022-12-04T18:27:42.301Z,17.10
2022-12-04T18:30:44.019Z,16.97
2022-12-04T18:33:46.170Z,16.93
2022-12-04T18:36:48.144Z,16.83
2022-12-04T18:39:50.936Z,17.20
2022-12-04T18:42:52.550Z,18.00
2022-12-04T18:46:04.050Z,18.13
2022-12-04T18:49:09.760Z,17.17
2022-12-04T18:52:11.429Z,17.47
2022-12-04T18:55:13.179Z,18.57
2022-12-04T18:58:14.819Z,19.03
2022-12-04T19:01:19.740Z,18.40
2022-12-04T19:04:23.432Z,17.73
2022-12-04T19:07:25.019Z,19.80
2022-12-04T19:10:28.203Z,19.20
2022-12-04T19:13:29.988Z,18.30
2022-12-04T19:16:31.704Z,18.07
2022-12-04T19:19:37.390Z,18.87
2022-12-04T19:22:39.148Z,19.67
2022-12-04T19:25:40.814Z,18.80
2022-12-04T19:28:42.562Z,16.80
2022-12-04T19:31:44.352Z,17.63
2022-12-04T19:34:49.016Z,18.53
2022-12-04T19:37:54.893Z,19.10
2022-12-04T19:41:11.006Z,18.00
2022-12-04T19:44:46.619Z,20.47
2022-12-04T19:47:35.086Z,19.47
2022-12-04T19:50:36.770Z,18.50
2022-12-04T19:53:41.095Z,17.70
2022-12-04T19:56:46.283Z,19.70
2022-12-04T19:59:47.890Z,17.33
2022-12-04T20:02:49.582Z,18.57
2022-12-04T20:05:51.546Z,17.17
2022-12-04T20:08:59.266Z,18.37
2022-12-04T20:12:00.884Z,17.60
2022-12-04T20:15:02.506Z,17.70
2022-12-04T20:18:05.317Z,18.03
2022-12-04T20:21:11.140Z,19.17
2022-12-04T20:24:16.356Z,18.17
2022-12-04T20:27:18.086Z,17.37
2022-12-04T20:30:19.847Z,16.70
2022-12-04T20:47:47.876Z,16.97
2022-12-04T20:59:26.788Z,18.53
2022-12-04T21:02:28.483Z,18.50
2022-12-04T21:05:30.122Z,19.10
2022-12-04T21:08:51.028Z,16.80
2022-12-04T21:11:54.720Z,17.57
2022-12-04T21:15:15.498Z,18.60
2022-12-04T21:18:17.069Z,18.60
2022-12-04T21:21:18.684Z,17.87
2022-12-04T21:24:22.040Z,16.57
2022-12-04T21:27:23.698Z,18.67
2022-12-04T21:30:25.324Z,18.40
2022-12-04T21:33:29.019Z,18.47
2022-12-04T21:36:30.819Z,16.77
2022-12-04T21:39:32.586Z,18.70
2022-12-04T21:42:35.349Z,18.00
2022-12-04T21:45:36.949Z,17.70
2022-12-04T21:48:38.710Z,17.30
2022-12-04T21:51:56.763Z,16.50
2022-12-04T21:55:02.266Z,16.80
2022-12-04T21:58:03.897Z,18.23
2022-12-04T22:01:13.184Z,16.47
2022-12-04T22:04:14.879Z,16.33
2022-12-04T22:07:16.784Z,16.47
2022-12-04T22:10:19.336Z,16.90
2022-12-04T22:13:20.935Z,17.33
2022-12-04T22:16:29.694Z,17.37
2022-12-04T22:19:33.928Z,16.70
2022-12-04T22:22:35.742Z,17.20
2022-12-04T22:25:38.238Z,16.50
2022-12-04T22:28:40.451Z,17.10
2022-12-04T22:31:42.120Z,17.67
2022-12-04T22:34:43.774Z,16.77
2022-12-04T22:37:45.555Z,16.53
2022-12-04T22:40:47.156Z,18.17
2022-12-04T22:43:48.921Z,16.97
2022-12-04T22:46:50.664Z,16.80
2022-12-04T22:49:52.370Z,16.83
2022-12-04T22:52:53.943Z,18.50
2022-12-04T22:55:55.581Z,16.77
2022-12-04T22:58:58.590Z,17.30
2022-12-04T23:02:00.320Z,16.90
2022-12-04T23:05:02.221Z,17.40
2022-12-04T23:08:06.539Z,18.17
2022-12-04T23:11:14.615Z,16.30
2022-12-04T23:14:16.243Z,17.17
2022-12-04T23:17:17.934Z,16.90
2022-12-04T23:20:19.679Z,16.60
2022-12-04T23:23:21.325Z,18.73
2022-12-04T23:26:25.670Z,18.27
2022-12-04T23:29:52.196Z,17.13
2022-12-04T23:32:48.977Z,16.50
2022-12-04T23:35:57.121Z,18.30
2022-12-04T23:38:59.278Z,17.00
2022-12-04T23:42:03.728Z,16.90
2022-12-04T23:45:07.443Z,17.10
2022-12-04T23:48:09.071Z,16.47
2022-12-04T23:51:12.365Z,17.43
2022-12-04T23:54:14.070Z,16.33
2022-12-04T23:57:15.683Z,17.03
